Time;durP1;ratioP1;P1;durP2;ratioP2;P2;SDS_P1;SDS_P2;PMS_P1;PMS_P2;Temp;Humidity;BMP_temperature;BMP_pressure;BME280_temperature;BME280_humidity;BME280_pressure;Samples;Min_cycle;Max_cycle;Signal;HPM_P1;HPM_P2
2023/06/17 00:01:11;;;;;;;12.43;8.57;;;;;;;17.12;80.12;100748.34;5007141;28;20206;-85
2023/06/17 00:03:38;;;;;;;12.20;8.77;;;;;;;16.98;79.90;100757.66;5007600;28;20212;-86
2023/06/17 00:06:04;;;;;;;16.30;8.83;;;;;;;16.84;79.69;100761.53;5003356;28;20208;-86
2023/06/17 00:08:32;;;;;;;10.30;8.63;;;;;;;16.71;80.46;100754.69;5009783;28;20197;-87
2023/06/17 00:10:58;;;;;;;10.50;9.00;;;;;;;16.59;80.55;100749.38;5004397;28;20211;-85
2023/06/17 00:13:25;;;;;;;11.93;8.73;;;;;;;16.51;81.37;100751.00;5006770;28;20578;-85
2023/06/17 00:15:53;;;;;;;11.70;9.77;;;;;;;16.47;81.83;100754.97;5002404;28;20253;-86
2023/06/17 00:18:22;;;;;;;10.77;9.77;;;;;;;16.44;82.92;100748.00;5010805;28;20203;-85
2023/06/17 00:20:52;;;;;;;11.33;10.33;;;;;;;16.44;84.08;100752.53;5009072;28;20219;-85
2023/06/17 00:23:19;;;;;;;11.33;10.23;;;;;;;16.48;84.70;100762.06;5007417;28;20219;-85
2023/06/17 00:25:47;;;;;;;11.40;10.30;;;;;;;16.51;85.20;100753.69;5009468;28;20251;-86
2023/06/17 00:28:14;;;;;;;10.90;9.83;;;;;;;16.53;85.50;100752.56;5012026;28;20213;-85
2023/06/17 00:30:40;;;;;;;10.83;9.83;;;;;;;16.53;85.51;100749.03;5006276;28;20208;-85
2023/06/17 00:33:07;;;;;;;11.80;10.70;;;;;;;16.56;85.22;100752.31;5012907;28;20210;-85
2023/06/17 00:35:34;;;;;;;12.20;11.00;;;;;;;16.57;85.13;100751.34;5010326;28;20226;-85
2023/06/17 00:38:01;;;;;;;10.37;9.23;;;;;;;16.57;85.16;100751.34;5003830;28;20241;-85
2023/06/17 00:40:27;;;;;;;10.87;9.67;;;;;;;16.58;84.67;100744.97;5001525;28;20210;-85
2023/06/17 00:42:55;;;;;;;11.20;10.20;;;;;;;16.57;84.95;100745.97;5000093;28;20214;-85
2023/06/17 00:45:22;;;;;;;11.70;10.60;;;;;;;16.56;84.27;100738.88;5000360;28;20233;-85
2023/06/17 00:47:48;;;;;;;10.93;9.93;;;;;;;16.54;84.22;100740.84;5004719;28;20232;-85
2023/06/17 00:50:15;;;;;;;10.30;9.27;;;;;;;16.52;84.02;100732.06;5016468;28;20214;-85
2023/06/17 00:52:43;;;;;;;10.80;9.80;;;;;;;16.53;84.04;100735.59;5006996;28;20611;-84
2023/06/17 00:55:11;;;;;;;11.10;9.90;;;;;;;16.50;84.14;100728.66;5008997;28;20699;-85
2023/06/17 00:57:38;;;;;;;11.20;10.10;;;;;;;16.50;84.25;100728.66;5007818;28;20222;-84
2023/06/17 01:00:10;;;;;;;10.70;9.70;;;;;;;16.50;84.67;100736.72;5008072;28;20571;-86
2023/06/17 01:02:40;;;;;;;11.90;9.90;;;;;;;16.51;85.04;100734.88;5004982;28;20200;-85
2023/06/17 01:05:11;;;;;;;10.00;9.10;;;;;;;16.51;85.49;100733.03;5007216;28;21035;-84
2023/06/17 01:07:46;;;;;;;10.50;9.37;;;;;;;16.52;85.41;100729.38;5005517;28;20225;-86
2023/06/17 01:10:17;;;;;;;11.03;9.80;;;;;;;16.51;85.31;100722.28;5004195;28;20200;-87
2023/06/17 01:12:46;;;;;;;11.10;9.87;;;;;;;16.51;85.47;100719.59;5009165;28;20201;-85
2023/06/17 01:15:16;;;;;;;10.73;9.20;;;;;;;16.50;85.22;100719.72;4998542;28;20229;-85
2023/06/17 01:17:44;;;;;;;10.37;9.27;;;;;;;16.49;84.93;100718.03;5011134;28;20226;-85
2023/06/17 01:20:13;;;;;;;10.70;9.30;;;;;;;16.47;84.68;100717.34;5008894;28;20207;-87
2023/06/17 01:22:41;;;;;;;9.27;8.50;;;;;;;16.45;84.40;100716.59;5011453;28;20642;-85
2023/06/17 01:25:13;;;;;;;9.70;8.80;;;;;;;16.41;83.76;100713.31;4997780;28;20205;-85
2023/06/17 01:27:41;;;;;;;9.57;8.47;;;;;;;16.40;83.59;100718.84;4994882;28;20393;-86
2023/06/17 01:30:09;;;;;;;10.00;9.10;;;;;;;16.38;83.32;100720.78;4993598;28;20213;-85
2023/06/17 01:32:35;;;;;;;10.00;8.93;;;;;;;16.35;83.10;100719.22;4999632;28;20217;-85
2023/06/17 01:35:06;;;;;;;9.77;8.77;;;;;;;16.33;82.62;100708.59;4999499;28;20596;-85
2023/06/17 01:37:38;;;;;;;11.67;9.07;;;;;;;16.32;82.50;100708.72;5001942;28;20228;-85
2023/06/17 01:40:07;;;;;;;9.93;8.93;;;;;;;16.33;82.52;100715.81;4998816;28;20296;-86
2023/06/17 01:42:41;;;;;;;10.20;9.00;;;;;;;16.30;82.09;100713.41;4995333;28;20250;-85
2023/06/17 01:45:08;;;;;;;10.20;8.83;;;;;;;16.29;81.72;100712.56;4999128;28;20212;-85
2023/06/17 01:47:35;;;;;;;10.80;8.50;;;;;;;16.29;81.67;100709.03;5002423;28;20243;-85
2023/06/17 01:50:04;;;;;;;10.37;9.37;;;;;;;16.27;81.33;100710.97;5003898;28;20218;-85
2023/06/17 01:52:31;;;;;;;10.77;8.93;;;;;;;16.22;80.76;100708.69;4994635;28;20212;-86
2023/06/17 01:54:58;;;;;;;9.97;9.07;;;;;;;16.23;80.84;100713.06;4998907;28;20230;-85
2023/06/17 01:57:25;;;;;;;10.20;9.10;;;;;;;16.21;80.80;100714.19;5003981;28;20224;-85
2023/06/17 01:59:54;;;;;;;9.87;8.97;;;;;;;16.18;80.46;100711.75;5000094;28;20263;-84
2023/06/17 02:02:20;;;;;;;10.47;9.37;;;;;;;16.16;80.33;100705.66;5002886;28;20663;-86
2023/06/17 02:04:47;;;;;;;10.57;9.40;;;;;;;16.13;80.31;100708.59;5007044;28;20212;-86
2023/06/17 02:07:16;;;;;;;11.17;9.00;;;;;;;16.10;80.59;100706.22;5003392;28;20256;-85
2023/06/17 02:09:43;;;;;;;11.67;8.63;;;;;;;16.08;80.26;100703.66;5002683;28;20208;-84
2023/06/17 02:12:11;;;;;;;9.53;8.63;;;;;;;16.06;80.27;100702.06;4998175;28;20205;-85
2023/06/17 02:14:37;;;;;;;9.83;8.80;;;;;;;16.02;80.24;100697.94;5007806;28;20639;-85
2023/06/17 02:17:08;;;;;;;9.33;8.37;;;;;;;15.97;80.27;100701.00;5005116;28;20222;-85
2023/06/17 02:19:35;;;;;;;11.23;8.03;;;;;;;15.92;79.90;100701.41;5006630;28;20212;-85
2023/06/17 02:22:02;;;;;;;10.30;9.30;;;;;;;15.89;80.02;100699.00;5004268;28;20294;-84
2023/06/17 02:24:28;;;;;;;10.63;9.53;;;;;;;15.87;79.96;100695.56;5002725;28;20262;-85
2023/06/17 02:26:56;;;;;;;9.13;8.17;;;;;;;15.87;80.07;100700.09;4996706;28;20230;-85
2023/06/17 02:29:22;;;;;;;9.87;8.50;;;;;;;15.84;80.06;100690.47;5008913;28;20207;-85
2023/06/17 02:31:49;;;;;;;11.30;9.20;;;;;;;15.82;79.91;100688.88;5008621;28;20220;-86
2023/06/17 02:34:17;;;;;;;8.80;8.00;;;;;;;15.79;79.69;100687.31;5010959;28;20303;-85
2023/06/17 02:36:44;;;;;;;8.87;7.97;;;;;;;15.78;79.52;100687.44;5003845;28;20231;-85
2023/06/17 02:39:11;;;;;;;9.07;7.80;;;;;;;15.75;79.54;100699.31;4996608;28;20214;-84
2023/06/17 02:41:37;;;;;;;10.50;8.90;;;;;;;15.74;79.54;100697.59;5006001;28;20208;-86
2023/06/17 02:44:04;;;;;;;9.90;9.00;;;;;;;15.73;79.17;100698.59;5007450;28;20210;-86
2023/06/17 02:46:31;;;;;;;12.33;9.17;;;;;;;15.72;79.17;100701.41;5007903;28;20224;-86
2023/06/17 02:48:57;;;;;;;10.47;9.37;;;;;;;15.61;79.18;100708.50;5005717;28;20717;-85
2023/06/17 02:51:25;;;;;;;10.47;9.40;;;;;;;15.56;79.13;100699.13;5010013;28;20579;-86
2023/06/17 02:53:52;;;;;;;12.80;9.73;;;;;;;15.49;79.50;100706.81;5004190;28;20562;-85
2023/06/17 02:56:18;;;;;;;11.67;10.17;;;;;;;15.41;79.85;100703.88;5002870;28;20251;-85
2023/06/17 02:58:45;;;;;;;12.43;9.83;;;;;;;15.34;80.49;100702.72;5012129;28;20210;-84
2023/06/17 03:01:12;;;;;;;12.40;10.27;;;;;;;15.27;80.75;100705.03;5011041;28;20220;-85
2023/06/17 03:03:41;;;;;;;12.23;9.80;;;;;;;15.22;81.10;100707.25;5006023;28;20212;-86
2023/06/17 03:06:09;;;;;;;12.17;9.23;;;;;;;15.19;81.81;100704.81;5007387;28;20229;-85
2023/06/17 03:08:40;;;;;;;11.23;10.03;;;;;;;15.17;82.47;100701.41;4999326;28;20231;-86
2023/06/17 03:11:07;;;;;;;12.60;10.00;;;;;;;15.16;82.62;100702.38;5008581;28;20919;-85
2023/06/17 03:13:34;;;;;;;10.67;9.70;;;;;;;15.12;82.79;100700.94;5008206;28;20218;-84
2023/06/17 03:16:01;;;;;;;11.17;10.07;;;;;;;15.08;82.83;100707.50;5004821;28;20223;-86
2023/06/17 03:18:28;;;;;;;10.60;9.47;;;;;;;15.04;83.01;100702.53;5002432;28;20207;-85
2023/06/17 03:20:55;;;;;;;11.07;10.00;;;;;;;15.00;83.62;100709.97;5007723;28;20212;-86
2023/06/17 03:23:21;;;;;;;11.30;9.40;;;;;;;14.96;83.52;100708.50;5006198;28;20201;-86
2023/06/17 03:25:52;;;;;;;10.93;9.83;;;;;;;14.93;83.93;100708.75;5009820;28;20205;-86
2023/06/17 03:28:20;;;;;;;10.47;9.57;;;;;;;14.94;83.99;100702.41;5012322;28;20210;-86
2023/06/17 03:30:46;;;;;;;10.70;9.60;;;;;;;14.92;84.11;100701.69;5004796;28;20212;-84
2023/06/17 03:33:13;;;;;;;10.63;9.30;;;;;;;14.92;84.46;100701.69;5005526;28;20206;-85
2023/06/17 03:35:40;;;;;;;11.03;9.60;;;;;;;14.93;84.80;100703.41;5010856;28;20281;-85
2023/06/17 03:38:06;;;;;;;11.80;9.97;;;;;;;14.93;84.49;100703.41;4997181;28;20219;-85
2023/06/17 03:40:33;;;;;;;10.73;9.63;;;;;;;14.93;84.43;100700.72;5009085;28;20214;-86
2023/06/17 03:43:01;;;;;;;12.43;9.47;;;;;;;14.91;84.13;100702.66;5005240;28;20214;-86
2023/06/17 03:45:28;;;;;;;11.07;9.97;;;;;;;14.88;83.68;100697.53;5011436;28;20206;-86
2023/06/17 03:47:54;;;;;;;11.33;10.13;;;;;;;14.82;84.12;100701.59;5003483;28;20241;-86
2023/06/17 03:50:21;;;;;;;13.63;10.47;;;;;;;14.80;84.24;100706.22;5001525;28;20654;-84
2023/06/17 03:52:47;;;;;;;12.40;9.77;;;;;;;14.78;84.43;100705.47;5010386;28;20210;-84
2023/06/17 03:55:14;;;;;;;10.93;9.83;;;;;;;14.76;84.60;100709.25;5004055;28;20235;-84
2023/06/17 03:57:41;;;;;;;11.53;9.90;;;;;;;14.77;85.30;100697.56;5004538;28;20598;-86
2023/06/17 04:00:11;;;;;;;11.37;10.27;;;;;;;14.79;85.19;100700.97;5005691;28;20224;-84
2023/06/17 04:02:37;;;;;;;14.20;10.63;;;;;;;14.80;85.41;100703.53;5007935;28;20212;-87
2023/06/17 04:05:05;;;;;;;11.63;10.43;;;;;;;14.80;85.50;100703.53;5012052;28;20624;-85
2023/06/17 04:07:32;;;;;;;14.07;10.27;;;;;;;14.81;85.69;100701.72;4995187;28;20235;-86
2023/06/17 04:09:59;;;;;;;14.17;10.30;;;;;;;14.79;85.47;100709.88;4994851;28;20207;-86
2023/06/17 04:12:26;;;;;;;12.00;10.10;;;;;;;14.77;85.59;100709.13;5007368;28;20584;-86
2023/06/17 04:14:52;;;;;;;11.50;10.00;;;;;;;14.77;86.23;100708.28;5014613;28;20208;-86
2023/06/17 04:17:20;;;;;;;13.77;10.63;;;;;;;14.77;86.40;100708.28;5014565;28;20234;-86
2023/06/17 04:19:47;;;;;;;12.90;10.87;;;;;;;14.78;86.59;100710.00;4997981;28;20226;-86
2023/06/17 04:22:14;;;;;;;11.13;10.03;;;;;;;14.81;86.77;100707.06;4996134;28;20295;-86
2023/06/17 04:24:40;;;;;;;12.00;10.53;;;;;;;14.86;86.75;100712.94;5002972;28;20211;-86
2023/06/17 04:27:08;;;;;;;12.20;10.23;;;;;;;14.90;86.98;100701.81;5003094;28;20228;-85
2023/06/17 04:29:36;;;;;;;13.03;10.53;;;;;;;14.94;86.66;100697.91;4997450;28;20230;-85
2023/06/17 04:32:03;;;;;;;11.10;10.03;;;;;;;15.00;86.63;100696.56;5010430;28;20208;-85
2023/06/17 04:34:30;;;;;;;12.20;10.30;;;;;;;15.03;86.78;100693.66;4999486;28;20223;-85
2023/06/17 04:36:57;;;;;;;11.53;10.07;;;;;;;15.05;86.17;100691.66;5000625;28;20232;-86
2023/06/17 04:39:24;;;;;;;13.03;11.37;;;;;;;15.10;86.06;100702.88;5011636;28;20212;-85
2023/06/17 04:41:51;;;;;;;11.40;10.23;;;;;;;15.13;85.85;100709.81;5007842;28;20266;-85
2023/06/17 04:44:18;;;;;;;11.30;10.20;;;;;;;15.16;85.43;100705.06;5012130;28;20217;-85
2023/06/17 04:46:45;;;;;;;11.50;10.30;;;;;;;15.19;85.32;100715.56;5002026;28;20267;-85
2023/06/17 04:49:11;;;;;;;11.87;9.97;;;;;;;15.23;85.41;100703.56;5003483;28;20287;-86
2023/06/17 04:51:40;;;;;;;10.87;9.77;;;;;;;15.26;85.41;100706.00;5010424;28;20204;-85
2023/06/17 04:54:07;;;;;;;11.20;10.07;;;;;;;15.32;85.13;100709.19;5011969;28;20262;-85
2023/06/17 04:56:34;;;;;;;18.90;11.10;;;;;;;15.35;85.29;100701.72;5010361;28;20283;-85
2023/06/17 04:59:00;;;;;;;12.53;10.37;;;;;;;15.40;85.02;100710.28;5008616;28;20207;-87
2023/06/17 05:01:27;;;;;;;10.57;9.63;;;;;;;15.43;84.96;100701.94;5012994;28;20203;-85
2023/06/17 05:03:54;;;;;;;14.87;11.07;;;;;;;15.48;85.06;100702.41;5014732;28;20216;-85
2023/06/17 05:06:20;;;;;;;12.63;11.03;;;;;;;15.54;84.92;100707.28;5000393;28;20705;-85
2023/06/17 05:08:48;;;;;;;11.90;10.77;;;;;;;15.60;85.00;100700.56;4996325;28;20210;-85
2023/06/17 05:11:14;;;;;;;13.23;11.53;;;;;;;15.66;84.81;100707.25;5003980;28;20204;-86
2023/06/17 05:13:41;;;;;;;13.33;11.73;;;;;;;15.70;84.72;100708.72;5009177;28;20626;-85
2023/06/17 05:16:07;;;;;;;15.07;11.77;;;;;;;15.74;85.08;100711.03;5005107;28;20233;-86
2023/06/17 05:18:34;;;;;;;17.73;12.90;;;;;;;15.81;85.42;100705.97;5006784;28;20213;-84
2023/06/17 05:21:03;;;;;;;15.90;13.60;;;;;;;15.88;86.03;100710.72;5001903;28;20201;-84
2023/06/17 05:23:30;;;;;;;17.67;14.43;;;;;;;15.98;86.51;100708.09;5009096;28;20690;-84
2023/06/17 05:25:57;;;;;;;23.37;15.77;;;;;;;16.07;87.01;100703.78;4999013;28;21044;-84
2023/06/17 05:28:24;;;;;;;18.23;16.27;;;;;;;16.14;87.31;100704.94;5000605;28;20233;-83
2023/06/17 05:30:50;;;;;;;17.50;15.53;;;;;;;16.21;87.48;100700.75;4998035;28;20213;-85
2023/06/17 05:33:17;;;;;;;21.67;16.20;;;;;;;16.30;87.81;100706.16;5006246;28;20224;-83
2023/06/17 05:35:43;;;;;;;21.90;16.53;;;;;;;16.39;88.04;100709.06;5007669;28;20302;-84
2023/06/17 05:38:10;;;;;;;21.33;16.07;;;;;;;16.44;87.92;100706.84;5001702;28;20220;-85
2023/06/17 05:40:36;;;;;;;18.83;16.40;;;;;;;16.47;87.67;100715.50;5006165;28;20235;-84
2023/06/17 05:43:04;;;;;;;21.60;17.27;;;;;;;16.49;87.97;100704.56;5002869;28;20211;-83
2023/06/17 05:45:31;;;;;;;20.70;17.03;;;;;;;16.55;87.95;100712.97;5007217;28;20288;-84
2023/06/17 05:47:57;;;;;;;22.13;16.93;;;;;;;16.58;87.96;100711.84;5006870;28;20230;-84
2023/06/17 05:50:24;;;;;;;26.33;18.90;;;;;;;16.62;88.00;100718.69;5002855;28;20236;-85
2023/06/17 05:52:50;;;;;;;22.77;17.67;;;;;;;16.64;87.90;100711.38;5008480;28;20230;-85
2023/06/17 05:55:17;;;;;;;26.23;18.73;;;;;;;16.64;87.61;100712.22;5005076;28;20579;-84
2023/06/17 05:57:43;;;;;;;28.03;19.53;;;;;;;16.64;87.49;100725.66;4999717;28;20230;-84
2023/06/17 06:00:13;;;;;;;29.83;19.23;;;;;;;16.65;87.59;100727.38;4991467;28;20201;-85
2023/06/17 06:02:39;;;;;;;26.73;19.53;;;;;;;16.68;87.71;100728.91;4999968;28;20206;-85
2023/06/17 06:05:07;;;;;;;26.83;19.40;;;;;;;16.71;88.12;100733.16;5007032;28;20589;-85
2023/06/17 06:07:33;;;;;;;25.73;19.33;;;;;;;16.74;88.13;100730.22;4995153;28;21550;-86
2023/06/17 06:10:02;;;;;;;26.87;19.13;;;;;;;16.77;87.94;100735.34;5005361;28;20229;-85
2023/06/17 06:12:28;;;;;;;28.63;20.67;;;;;;;16.79;87.77;100738.75;4998437;28;20211;-85
2023/06/17 06:14:55;;;;;;;25.00;18.93;;;;;;;16.82;87.44;100738.47;5006397;28;20681;-85
2023/06/17 06:17:23;;;;;;;28.93;20.10;;;;;;;16.83;87.26;100749.09;5009360;28;20234;-84
2023/06/17 06:19:50;;;;;;;26.93;19.37;;;;;;;16.84;86.94;100749.97;5006965;28;20265;-84
2023/06/17 06:22:16;;;;;;;26.53;19.17;;;;;;;16.84;86.97;100744.59;4999203;28;20677;-85
2023/06/17 06:24:43;;;;;;;25.30;19.67;;;;;;;16.84;86.67;100745.41;5007035;28;20199;-85
2023/06/17 06:27:09;;;;;;;28.73;18.23;;;;;;;16.87;86.71;100745.13;4994827;28;20224;-84
2023/06/17 06:29:36;;;;;;;28.37;20.27;;;;;;;16.89;86.72;100751.25;5014293;28;20209;-84
2023/06/17 06:32:02;;;;;;;30.60;20.23;;;;;;;16.91;86.65;100743.03;5014261;28;20203;-85
2023/06/17 06:34:30;;;;;;;28.87;20.73;;;;;;;16.91;86.50;100749.25;5008751;28;20220;-84
2023/06/17 06:36:58;;;;;;;27.50;19.13;;;;;;;16.95;86.66;100752.53;5006194;28;20227;-84
2023/06/17 06:39:25;;;;;;;29.27;19.97;;;;;;;17.00;86.92;100758.38;5006632;28;20696;-84
2023/06/17 06:41:51;;;;;;;25.10;19.90;;;;;;;17.04;86.65;100754.41;5011876;28;20214;-85
2023/06/17 06:44:18;;;;;;;29.17;20.33;;;;;;;17.09;86.12;100760.25;5001673;28;20586;-85
2023/06/17 06:46:45;;;;;;;27.63;19.27;;;;;;;17.14;85.54;100755.31;5000076;28;20232;-85
2023/06/17 06:49:12;;;;;;;27.30;19.03;;;;;;;17.17;84.87;100756.88;5007879;28;20215;-84
2023/06/17 06:51:40;;;;;;;25.90;19.17;;;;;;;17.19;84.17;100758.44;5010865;28;20657;-84
2023/06/17 06:54:06;;;;;;;23.90;18.80;;;;;;;17.22;83.84;100765.38;5012002;28;20211;-84
2023/06/17 06:56:33;;;;;;;25.27;18.33;;;;;;;17.24;83.65;100758.88;5001672;28;20228;-84
2023/06/17 06:58:59;;;;;;;27.13;18.77;;;;;;;17.29;83.33;100769.22;5008374;28;20220;-83
2023/06/17 07:01:27;;;;;;;25.63;18.13;;;;;;;17.34;83.13;100770.53;5006301;28;20209;-84
2023/06/17 07:03:53;;;;;;;29.57;18.97;;;;;;;17.40;82.64;100773.63;5005302;28;20207;-86
2023/06/17 07:06:20;;;;;;;29.97;19.20;;;;;;;17.47;82.33;100764.88;4998205;28;20226;-86
2023/06/17 07:08:48;;;;;;;28.87;19.23;;;;;;;17.50;81.28;100769.16;5013517;28;20219;-85
2023/06/17 07:11:14;;;;;;;28.77;20.17;;;;;;;17.57;81.35;100770.28;5013130;28;20207;-85
2023/06/17 07:13:41;;;;;;;26.90;18.80;;;;;;;17.70;81.48;100770.91;5008594;28;20232;-85
2023/06/17 07:16:08;;;;;;;28.23;19.23;;;;;;;17.76;80.33;100769.47;5001619;28;20232;-84
2023/06/17 07:18:34;;;;;;;23.90;18.90;;;;;;;17.88;80.79;100763.84;5005450;28;20207;-84
2023/06/17 07:21:02;;;;;;;27.13;19.10;;;;;;;18.06;80.30;100768.53;5014860;28;20203;-85
2023/06/17 07:23:28;;;;;;;23.27;18.33;;;;;;;18.19;79.25;100769.06;5007748;28;20280;-84
2023/06/17 07:25:56;;;;;;;27.23;19.93;;;;;;;18.31;77.88;100767.91;5002523;28;20209;-84
2023/06/17 07:28:22;;;;;;;24.90;18.30;;;;;;;18.46;77.61;100771.00;5005592;28;20197;-84
2023/06/17 07:30:49;;;;;;;24.60;17.77;;;;;;;18.54;76.08;100754.97;5011224;28;20233;-84
2023/06/17 07:33:16;;;;;;;23.53;18.43;;;;;;;18.61;75.03;100764.22;5014099;28;20213;-83
2023/06/17 07:35:43;;;;;;;19.60;17.40;;;;;;;18.64;74.69;100759.34;5007421;28;20209;-84
2023/06/17 07:38:09;;;;;;;27.00;18.87;;;;;;;18.71;74.57;100757.78;5010042;28;20241;-86
2023/06/17 07:40:36;;;;;;;24.93;19.60;;;;;;;18.80;74.04;100763.31;5011463;28;20661;-85
2023/06/17 07:43:05;;;;;;;21.70;18.23;;;;;;;18.82;72.92;100759.44;5004883;28;20201;-84
2023/06/17 07:45:31;;;;;;;24.37;17.70;;;;;;;18.85;72.97;100769.94;5010334;28;20212;-84
2023/06/17 07:47:58;;;;;;;20.87;18.50;;;;;;;18.96;73.58;100763.53;5007446;28;20317;-84
2023/06/17 07:50:24;;;;;;;21.47;17.43;;;;;;;19.12;73.29;100765.59;5004584;28;20210;-85
2023/06/17 07:52:52;;;;;;;21.67;17.93;;;;;;;19.29;72.73;100760.25;5011134;28;20220;-84
2023/06/17 07:55:19;;;;;;;22.43;18.20;;;;;;;19.38;70.72;100767.44;5008741;28;20256;-85
2023/06/17 07:57:45;;;;;;;19.87;17.13;;;;;;;19.50;70.95;100760.00;5009125;28;20234;-85
2023/06/17 08:00:15;;;;;;;25.13;18.17;;;;;;;19.60;69.82;100762.63;5006322;28;21449;-84
2023/06/17 08:02:41;;;;;;;19.93;16.63;;;;;;;19.62;68.94;100757.94;5010570;28;20861;-84
2023/06/17 08:05:11;;;;;;;20.00;17.90;;;;;;;19.64;68.61;100753.25;5007365;28;20561;-85
2023/06/17 08:07:37;;;;;;;21.27;17.37;;;;;;;19.72;68.90;100766.81;5004427;28;20246;-84
2023/06/17 08:10:05;;;;;;;21.73;17.63;;;;;;;19.80;68.77;100753.41;5007568;28;20210;-85
2023/06/17 08:12:31;;;;;;;19.47;17.13;;;;;;;19.89;68.24;100771.38;5004233;28;20279;-86
2023/06/17 08:14:58;;;;;;;21.73;17.37;;;;;;;19.94;67.98;100760.09;5008769;28;20282;-85
2023/06/17 08:17:26;;;;;;;20.17;16.70;;;;;;;20.02;67.83;100754.78;5010669;28;20597;-84
2023/06/17 08:19:52;;;;;;;22.63;17.20;;;;;;;20.08;67.15;100760.41;5001635;28;20213;-84
2023/06/17 08:22:20;;;;;;;20.33;17.60;;;;;;;20.15;67.32;100749.81;5006188;28;20210;-84
2023/06/17 08:24:46;;;;;;;20.43;18.20;;;;;;;20.21;66.45;100751.91;5005227;28;20662;-84
2023/06/17 08:27:13;;;;;;;19.67;16.87;;;;;;;20.32;66.92;100758.91;5002918;28;20226;-84
2023/06/17 08:29:39;;;;;;;19.97;17.87;;;;;;;20.48;66.51;100760.94;5015754;28;20240;-85
2023/06/17 08:32:07;;;;;;;18.95;16.95;;;;;;;20.56;65.70;100745.59;5007624;28;20206;-85
2023/06/17 08:34:35;;;;;;;22.83;17.33;;;;;;;20.65;65.35;100755.47;5006149;28;20210;-85
2023/06/17 08:37:03;;;;;;;23.80;17.38;;;;;;;20.69;65.22;100759.56;5007310;28;20252;-84
2023/06/17 08:39:30;;;;;;;21.23;16.60;;;;;;;20.73;65.22;100757.38;5002898;28;20209;-84
2023/06/17 08:41:57;;;;;;;18.80;16.92;;;;;;;20.78;65.00;100758.56;5005126;28;20210;-84
2023/06/17 08:44:26;;;;;;;22.23;18.15;;;;;;;20.82;64.35;100759.13;5008515;28;20213;-84
2023/06/17 08:46:54;;;;;;;19.42;17.00;;;;;;;20.89;64.64;100754.75;5003366;28;20254;-85
2023/06/17 08:49:24;;;;;;;22.42;17.90;;;;;;;20.95;64.29;100756.00;5004858;28;20253;-84
2023/06/17 08:51:52;;;;;;;20.08;17.98;;;;;;;21.00;64.10;100761.75;5004706;28;20212;-84
2023/06/17 08:54:20;;;;;;;21.40;18.10;;;;;;;21.09;64.03;100756.22;5001151;28;20689;-84
2023/06/17 08:56:46;;;;;;;20.50;16.70;;;;;;;21.18;63.19;100764.38;5006187;28;20326;-84
2023/06/17 08:59:13;;;;;;;20.27;16.63;;;;;;;21.25;62.84;100760.88;5006085;28;20585;-85
2023/06/17 09:01:41;;;;;;;21.92;17.38;;;;;;;21.32;62.69;100761.06;5001497;28;20201;-84
2023/06/17 09:04:07;;;;;;;19.88;17.77;;;;;;;21.39;62.54;100762.97;5007918;28;20200;-84
2023/06/17 09:06:34;;;;;;;22.60;18.15;;;;;;;21.48;62.74;100762.00;5005874;28;20222;-84
2023/06/17 09:09:03;;;;;;;19.60;17.42;;;;;;;21.62;62.08;100756.94;5009435;28;20202;-83
2023/06/17 09:11:31;;;;;;;22.92;18.15;;;;;;;21.68;61.70;100753.53;5010193;28;20214;-84
2023/06/17 09:14:00;;;;;;;22.70;18.50;;;;;;;21.78;62.03;100749.69;5001935;28;20206;-84
2023/06/17 09:16:26;;;;;;;18.90;16.90;;;;;;;21.86;61.74;100756.97;5006856;28;20577;-84
2023/06/17 09:18:55;;;;;;;22.17;16.90;;;;;;;21.97;62.01;100751.25;5000281;28;20210;-83
2023/06/17 09:21:23;;;;;;;18.95;16.70;;;;;;;22.04;60.72;100751.41;5009771;28;20276;-83
2023/06/17 09:23:55;;;;;;;19.10;17.08;;;;;;;22.07;60.69;100751.94;5007260;28;20202;-84
2023/06/17 09:26:27;;;;;;;18.52;16.42;;;;;;;22.13;60.76;100753.13;5005017;28;20230;-85
2023/06/17 09:28:54;;;;;;;20.08;16.23;;;;;;;22.20;60.62;100750.59;5004597;28;20211;-85
2023/06/17 09:31:21;;;;;;;17.92;16.13;;;;;;;22.29;60.50;100745.00;5004258;28;20214;-84
2023/06/17 09:33:48;;;;;;;19.05;17.25;;;;;;;22.43;59.76;100749.72;5002453;28;20206;-84
2023/06/17 09:36:14;;;;;;;18.50;16.58;;;;;;;22.52;59.07;100745.16;5012009;28;20661;-83
2023/06/17 09:38:42;;;;;;;19.30;16.15;;;;;;;22.57;58.49;100747.34;5001687;28;20238;-84
2023/06/17 09:41:14;;;;;;;20.77;15.85;;;;;;;22.59;58.24;100745.28;5002241;28;20227;-83
2023/06/17 09:43:42;;;;;;;28.48;17.73;;;;;;;22.65;58.33;100744.59;5006636;28;20277;-83
2023/06/17 09:46:11;;;;;;;20.13;17.08;;;;;;;22.75;57.89;100737.13;5000252;28;20210;-84
2023/06/17 09:48:38;;;;;;;17.00;15.43;;;;;;;22.81;58.11;100729.16;5001740;28;20574;-85
2023/06/17 09:51:09;;;;;;;19.60;16.27;;;;;;;22.87;57.75;100741.19;5001480;28;20206;-84
2023/06/17 09:53:36;;;;;;;17.35;15.55;;;;;;;22.93;57.79;100737.75;5003291;28;20218;-85
2023/06/17 09:56:03;;;;;;;18.15;15.95;;;;;;;23.03;57.70;100734.84;5007258;28;20205;-84
2023/06/17 09:58:31;;;;;;;19.50;17.50;;;;;;;23.05;57.05;100735.53;5009190;28;20223;-84
2023/06/17 10:01:00;;;;;;;20.92;18.02;;;;;;;23.10;57.09;100736.69;5004285;28;20597;-85
2023/06/17 10:03:27;;;;;;;17.52;15.68;;;;;;;23.10;56.74;100731.28;5001588;28;20203;-84
2023/06/17 10:05:57;;;;;;;19.40;15.82;;;;;;;23.12;56.81;100737.34;5007426;28;20712;-83
2023/06/17 10:08:25;;;;;;;18.55;15.13;;;;;;;23.16;57.17;100740.56;5006332;28;20213;-83
2023/06/17 10:10:53;;;;;;;17.67;15.77;;;;;;;23.24;57.30;100739.69;5002763;28;20211;-84
2023/06/17 10:13:22;;;;;;;18.85;16.05;;;;;;;23.34;57.23;100741.16;5008705;28;20211;-84
2023/06/17 10:15:49;;;;;;;19.13;17.02;;;;;;;23.46;56.15;100734.31;5006221;28;20680;-84
2023/06/17 10:18:18;;;;;;;18.90;16.33;;;;;;;23.56;55.98;100727.81;5008827;28;20244;-85
2023/06/17 10:20:48;;;;;;;19.83;16.90;;;;;;;23.64;55.58;100735.94;5004276;28;20210;-85
2023/06/17 10:23:16;;;;;;;17.65;15.00;;;;;;;23.75;56.14;100727.38;5003368;28;20571;-85
2023/06/17 10:25:42;;;;;;;17.88;15.70;;;;;;;23.86;55.30;100743.25;4998705;28;20676;-86
2023/06/17 10:28:09;;;;;;;18.00;16.20;;;;;;;23.92;54.71;100723.50;5008072;28;20233;-85
2023/06/17 10:30:37;;;;;;;17.23;15.40;;;;;;;24.01;54.81;100719.66;5012645;28;20202;-85
2023/06/17 10:33:05;;;;;;;16.27;14.70;;;;;;;24.06;53.48;100722.69;5007491;28;20301;-84
2023/06/17 10:35:40;;;;;;;16.60;14.63;;;;;;;24.19;54.14;100724.78;5005394;28;20204;-85
2023/06/17 10:38:08;;;;;;;17.77;15.93;;;;;;;24.25;53.58;100726.81;5013360;28;20229;-85
2023/06/17 10:40:40;;;;;;;18.83;16.63;;;;;;;24.31;53.92;100727.97;5009321;28;20213;-85
2023/06/17 10:43:18;;;;;;;17.92;15.82;;;;;;;24.34;53.14;100723.00;5003136;28;20202;-86
2023/06/17 10:45:54;;;;;;;18.30;15.90;;;;;;;24.33;53.60;100724.03;5005604;28;20368;-85
2023/06/17 10:48:25;;;;;;;18.63;15.48;;;;;;;24.37;52.88;100721.75;5008017;28;20660;-84
2023/06/17 10:50:54;;;;;;;16.33;14.65;;;;;;;24.37;53.34;100725.34;5000396;28;20199;-84
2023/06/17 10:53:29;;;;;;;18.20;16.35;;;;;;;24.44;52.77;100717.28;5010935;28;20583;-86
2023/06/17 10:55:57;;;;;;;16.05;14.45;;;;;;;24.54;53.24;100718.69;5004300;28;20241;-86
2023/06/17 10:58:24;;;;;;;16.48;14.68;;;;;;;24.66;52.86;100710.94;5005500;28;20378;-85
2023/06/17 11:00:59;;;;;;;19.08;15.43;;;;;;;24.81;53.25;100710.91;5008152;28;20207;-86
2023/06/17 11:03:25;;;;;;;16.42;14.82;;;;;;;24.89;52.40;100710.84;5003047;28;20206;-86
2023/06/17 11:05:53;;;;;;;17.70;14.98;;;;;;;24.99;51.31;100707.84;5006686;28;20256;-84
2023/06/17 11:08:20;;;;;;;16.63;14.93;;;;;;;25.07;52.02;100708.59;5007299;28;20267;-85
2023/06/17 11:10:46;;;;;;;17.73;15.93;;;;;;;25.12;50.92;100702.56;4997617;28;20218;-86
2023/06/17 11:13:13;;;;;;;17.55;15.25;;;;;;;25.14;51.30;100704.06;5009295;28;20204;-84